createdAt,value
2022-11-29T00:00:56.353Z,15.35
2022-11-29T00:03:33.706Z,14.13
2022-11-29T00:06:15.163Z,13.90
2022-11-29T00:08:51.038Z,14.77
2022-11-29T00:11:44.210Z,14.63
2022-11-29T00:14:23.722Z,16.08
2022-11-29T00:17:02.841Z,15.05
2022-11-29T00:19:41.148Z,15.02
2022-11-29T00:22:16.716Z,13.93
2022-11-29T00:24:53.846Z,14.55
2022-11-29T00:27:37.857Z,17.42
2022-11-29T00:30:22.086Z,16.10
2022-11-29T00:33:00.212Z,15.13
2022-11-29T00:35:51.522Z,16.15
2022-11-29T00:38:37.875Z,16.45
2022-11-29T00:41:15.711Z,14.20
2022-11-29T00:43:58.889Z,15.38
2022-11-29T00:46:33.018Z,15.60
2022-11-29T00:49:16.787Z,14.40
2022-11-29T00:51:53.172Z,15.90
2022-11-29T00:54:28.215Z,15.68
2022-11-29T00:57:01.639Z,13.70
2022-11-29T00:59:35.023Z,16.25
2022-11-29T01:02:08.553Z,15.77
2022-11-29T01:04:42.377Z,15.27
2022-11-29T01:09:50.542Z,13.23
2022-11-29T01:12:24.062Z,15.00
2022-11-29T01:14:57.478Z,15.80
2022-11-29T01:17:30.910Z,15.82
2022-11-29T01:20:05.220Z,17.15
2022-11-29T01:22:39.196Z,15.07
2022-11-29T01:27:48.260Z,13.27
2022-11-29T01:30:21.857Z,17.80
2022-11-29T01:32:55.265Z,16.25
2022-11-29T01:35:28.737Z,16.77
2022-11-29T01:38:02.125Z,19.05
2022-11-29T01:40:36.976Z,15.00
2022-11-29T01:43:17.431Z,15.13
2022-11-29T01:45:51.777Z,16.33
2022-11-29T01:48:30.755Z,16.90
2022-11-29T01:51:04.504Z,16.52
2022-11-29T01:53:37.992Z,17.15
2022-11-29T01:56:15.994Z,15.93
2022-11-29T01:58:49.755Z,17.15
2022-11-29T02:01:23.208Z,16.15
2022-11-29T02:03:57.021Z,15.23
2022-11-29T02:06:31.664Z,14.93
2022-11-29T02:09:06.008Z,14.75
2022-11-29T02:12:04.643Z,16.42
2022-11-29T02:14:52.779Z,15.55
2022-11-29T02:17:35.270Z,14.82
2022-11-29T02:20:33.519Z,16.58
2022-11-29T02:23:27.886Z,16.75
2022-11-29T02:26:16.748Z,15.75
2022-11-29T02:29:13.690Z,16.45
2022-11-29T02:32:33.494Z,15.40
2022-11-29T02:35:25.152Z,15.48
2022-11-29T02:38:21.691Z,15.27
2022-11-29T02:41:22.997Z,17.30
2022-11-29T02:44:31.900Z,15.23
2022-11-29T02:47:17.013Z,15.52
2022-11-29T02:50:16.190Z,16.75
2022-11-29T02:53:01.690Z,16.60
2022-11-29T02:55:43.178Z,19.88
2022-11-29T02:58:25.103Z,17.73
2022-11-29T03:01:04.099Z,15.68
2022-11-29T03:03:42.318Z,18.35
2022-11-29T03:06:23.475Z,16.85
2022-11-29T03:09:07.687Z,17.38
2022-11-29T03:11:49.801Z,20.08
2022-11-29T03:14:27.206Z,16.77
2022-11-29T03:17:08.591Z,16.65
2022-11-29T03:20:01.104Z,15.25
2022-11-29T03:22:45.184Z,16.38
2022-11-29T03:25:27.425Z,16.95
2022-11-29T03:28:04.302Z,17.33
2022-11-29T03:30:41.392Z,17.88
2022-11-29T03:33:23.960Z,18.23
2022-11-29T03:36:05.894Z,17.15
2022-11-29T03:38:42.080Z,18.20
2022-11-29T03:41:25.169Z,18.17
2022-11-29T03:44:04.645Z,17.13
2022-11-29T03:46:43.642Z,17.25
2022-11-29T03:49:24.075Z,18.60
2022-11-29T03:52:03.992Z,16.75
2022-11-29T03:54:49.318Z,17.92
2022-11-29T03:57:32.855Z,17.63
2022-11-29T04:00:09.589Z,18.42
2022-11-29T04:03:09.731Z,16.50
2022-11-29T04:06:15.326Z,17.02
2022-11-29T04:09:16.222Z,17.30
2022-11-29T04:12:22.502Z,16.42
2022-11-29T04:15:31.049Z,17.08
2022-11-29T04:18:27.276Z,15.60
2022-11-29T04:21:29.400Z,16.80
2022-11-29T04:24:50.033Z,16.88
2022-11-29T04:27:55.906Z,16.25
2022-11-29T04:30:38.711Z,17.45
2022-11-29T04:33:33.617Z,16.88
2022-11-29T04:36:32.429Z,17.92
2022-11-29T04:39:27.391Z,17.27
2022-11-29T04:42:28.121Z,18.77
2022-11-29T04:45:33.861Z,16.95
2022-11-29T04:48:32.193Z,17.85
2022-11-29T04:51:20.990Z,16.98
2022-11-29T04:54:01.590Z,17.80
2022-11-29T04:56:41.946Z,18.42
2022-11-29T04:59:22.466Z,18.25
2022-11-29T05:02:06.953Z,17.45
2022-11-29T05:04:52.183Z,17.20
2022-11-29T05:07:34.320Z,19.23
2022-11-29T05:10:24.348Z,19.67
2022-11-29T05:13:04.604Z,20.63
2022-11-29T05:15:58.694Z,19.92
2022-11-29T05:18:58.133Z,20.33
2022-11-29T05:21:43.476Z,18.27
2022-11-29T05:24:29.630Z,18.98
2022-11-29T05:27:12.968Z,14.68
2022-11-29T05:29:55.554Z,16.55
2022-11-29T05:32:34.901Z,16.35
2022-11-29T05:35:44.692Z,17.48
2022-11-29T05:38:39.613Z,17.83
2022-11-29T05:41:46.093Z,20.63
2022-11-29T05:44:33.113Z,20.65
2022-11-29T05:47:10.233Z,20.33
2022-11-29T05:49:50.626Z,17.80
2022-11-29T05:52:29.894Z,18.63
2022-11-29T05:55:22.256Z,19.52
2022-11-29T05:58:00.435Z,18.35
2022-11-29T06:00:42.607Z,19.73
2022-11-29T06:03:26.312Z,19.65
2022-11-29T06:06:08.266Z,19.42
2022-11-29T06:08:49.139Z,17.50
2022-11-29T06:11:29.797Z,19.15
2022-11-29T06:14:08.975Z,18.98
2022-11-29T06:16:58.423Z,18.55
2022-11-29T06:20:04.383Z,19.40
2022-11-29T06:22:57.773Z,16.60
2022-11-29T06:25:44.421Z,19.08
2022-11-29T06:28:38.790Z,17.98
2022-11-29T06:31:19.904Z,17.60
2022-11-29T06:34:03.761Z,18.85
2022-11-29T06:36:43.750Z,18.02
2022-11-29T06:39:17.751Z,19.75
2022-11-29T06:44:26.791Z,19.55
2022-11-29T06:47:07.267Z,17.00
2022-11-29T06:49:45.694Z,18.92
2022-11-29T06:52:28.663Z,19.40
2022-11-29T06:55:11.979Z,19.88
2022-11-29T06:57:57.667Z,18.77
2022-11-29T07:00:39.659Z,17.73
2022-11-29T07:03:40.723Z,19.98
2022-11-29T07:06:21.650Z,18.13
2022-11-29T07:09:01.095Z,18.83
2022-11-29T07:11:36.911Z,19.25
2022-11-29T07:14:11.206Z,19.63
2022-11-29T07:16:57.162Z,20.80
2022-11-29T07:19:44.839Z,17.70
2022-11-29T07:22:37.831Z,18.38
2022-11-29T07:25:21.390Z,18.67
2022-11-29T07:28:01.454Z,20.35
2022-11-29T07:30:43.741Z,21.98
2022-11-29T07:33:27.209Z,19.45
2022-11-29T07:36:11.685Z,16.70
2022-11-29T07:39:00.558Z,17.42
2022-11-29T07:41:42.486Z,18.27
2022-11-29T07:44:27.212Z,19.08
2022-11-29T07:47:00.847Z,18.70
2022-11-29T07:49:35.888Z,17.45
2022-11-29T07:52:12.916Z,18.00
2022-11-29T07:54:46.837Z,17.15
2022-11-29T07:57:21.288Z,19.02
2022-11-29T07:59:54.806Z,18.95
2022-11-29T08:02:30.044Z,17.00
2022-11-29T08:05:05.392Z,17.48
2022-11-29T08:07:40.129Z,19.88
2022-11-29T08:10:17.020Z,17.58
2022-11-29T08:12:52.497Z,22.45
2022-11-29T08:15:29.067Z,20.80
2022-11-29T08:18:03.225Z,19.13
2022-11-29T08:20:39.412Z,17.90
2022-11-29T08:23:14.266Z,19.40
2022-11-29T08:25:48.656Z,18.10
2022-11-29T08:28:22.377Z,17.08
2022-11-29T08:31:02.714Z,17.45
2022-11-29T08:33:37.312Z,17.33
2022-11-29T08:36:15.262Z,17.90
2022-11-29T08:38:48.973Z,17.70
2022-11-29T08:41:22.469Z,17.55
2022-11-29T08:43:56.009Z,16.83
2022-11-29T08:46:50.231Z,16.77
2022-11-29T08:49:23.851Z,18.40
2022-11-29T08:52:12.665Z,17.52
2022-11-29T08:54:46.386Z,17.00
2022-11-29T08:57:41.440Z,18.13
2022-11-29T09:00:16.410Z,19.48
2022-11-29T09:02:50.088Z,18.48
2022-11-29T09:05:23.607Z,17.60
2022-11-29T09:08:00.212Z,18.38
2022-11-29T09:10:33.830Z,18.20
2022-11-29T09:13:07.577Z,18.30
2022-11-29T09:15:43.659Z,15.88
2022-11-29T09:18:17.340Z,17.92
2022-11-29T09:20:50.857Z,17.67
2022-11-29T09:23:25.933Z,18.30
2022-11-29T09:25:59.489Z,16.83
2022-11-29T09:28:33.437Z,16.08
2022-11-29T09:31:07.842Z,18.08
2022-11-29T09:33:41.618Z,18.30
2022-11-29T09:36:16.836Z,16.88
2022-11-29T09:38:51.873Z,15.60
2022-11-29T09:41:43.073Z,16.08
2022-11-29T09:44:29.861Z,16.33
2022-11-29T09:47:20.325Z,16.33
2022-11-29T09:50:16.613Z,17.98
2022-11-29T09:53:06.251Z,17.15
2022-11-29T09:55:52.128Z,16.60
2022-11-29T09:58:31.433Z,15.38
2022-11-29T10:01:09.660Z,16.90
2022-11-29T10:03:46.964Z,26.55
2022-11-29T10:06:27.158Z,19.13
2022-11-29T10:09:16.118Z,16.83
2022-11-29T10:12:07.462Z,17.63
2022-11-29T10:14:47.922Z,18.67
2022-11-29T10:17:35.188Z,18.83
2022-11-29T10:20:24.277Z,18.08
2022-11-29T10:23:02.756Z,18.33
2022-11-29T10:25:43.711Z,18.15
2022-11-29T10:28:21.229Z,17.60
2022-11-29T10:30:56.956Z,18.70
2022-11-29T10:33:35.490Z,18.42
2022-11-29T10:36:20.282Z,17.52
2022-11-29T10:38:59.633Z,20.08
2022-11-29T10:41:34.402Z,19.35
2022-11-29T10:44:17.358Z,19.63
2022-11-29T10:46:52.808Z,18.13
2022-11-29T10:49:36.717Z,18.63
2022-11-29T10:52:22.296Z,20.27
2022-11-29T10:54:59.814Z,17.73
2022-11-29T10:58:00.315Z,18.90
2022-11-29T11:00:48.036Z,18.65
2022-11-29T11:03:37.422Z,19.80
2022-11-29T11:06:23.577Z,18.38
2022-11-29T11:09:20.370Z,17.77
2022-11-29T11:11:56.143Z,17.60
2022-11-29T11:14:33.155Z,19.75
2022-11-29T11:17:23.647Z,19.25
2022-11-29T11:20:00.994Z,18.45
2022-11-29T11:22:36.251Z,17.63
2022-11-29T11:25:29.015Z,18.30
2022-11-29T11:28:15.830Z,18.58
2022-11-29T11:30:53.554Z,20.92
2022-11-29T11:33:30.467Z,18.02
2022-11-29T11:36:10.151Z,19.23
2022-11-29T11:38:54.629Z,19.17
2022-11-29T11:41:44.134Z,18.70
2022-11-29T11:47:28.395Z,19.23
2022-11-29T11:50:14.987Z,18.58
2022-11-29T11:52:55.610Z,19.77
2022-11-29T11:55:50.186Z,21.73
2022-11-29T11:58:25.005Z,20.88
2022-11-29T12:01:06.908Z,19.42
2022-11-29T12:03:57.613Z,18.90
2022-11-29T12:06:41.274Z,18.65
2022-11-29T12:09:29.235Z,17.42
2022-11-29T12:12:17.956Z,18.23
2022-11-29T12:14:56.987Z,17.15
2022-11-29T12:17:40.411Z,20.27
2022-11-29T12:20:36.936Z,17.63
2022-11-29T12:23:35.314Z,18.15
2022-11-29T12:26:48.578Z,17.58
2022-11-29T12:29:17.268Z,17.92
2022-11-29T12:32:07.580Z,16.58
2022-11-29T12:35:13.656Z,17.60
2022-11-29T12:37:57.939Z,17.55
2022-11-29T12:40:41.774Z,17.67
2022-11-29T12:43:29.976Z,17.10
2022-11-29T12:46:13.790Z,18.55
2022-11-29T12:48:54.187Z,18.83
2022-11-29T12:51:36.577Z,18.73
2022-11-29T12:54:29.729Z,19.50
2022-11-29T12:57:12.171Z,19.60
2022-11-29T13:00:09.749Z,17.95
2022-11-29T13:02:53.892Z,17.30
2022-11-29T13:05:43.461Z,17.50
2022-11-29T13:08:44.362Z,18.58
2022-11-29T13:11:23.395Z,17.90
2022-11-29T13:14:34.541Z,19.77
2022-11-29T13:17:02.911Z,19.45
2022-11-29T13:19:41.912Z,17.98
2022-11-29T13:22:19.287Z,20.52
2022-11-29T13:24:57.752Z,21.23
2022-11-29T13:27:36.465Z,20.23
2022-11-29T13:30:16.039Z,22.70
2022-11-29T13:33:00.161Z,21.10
2022-11-29T13:35:41.339Z,22.13
2022-11-29T13:38:20.030Z,19.52
2022-11-29T13:40:59.490Z,18.77
2022-11-29T13:43:40.876Z,21.02
2022-11-29T13:46:24.306Z,19.10
2022-11-29T13:48:57.920Z,20.77
2022-11-29T13:51:34.709Z,20.83
2022-11-29T13:54:26.452Z,21.73
2022-11-29T13:57:03.984Z,18.48
2022-11-29T13:59:47.132Z,17.35
2022-11-29T14:02:32.191Z,20.63
2022-11-29T14:05:08.082Z,17.40
2022-11-29T14:08:23.062Z,18.85
2022-11-29T14:10:59.641Z,17.35
2022-11-29T14:13:38.517Z,17.17
2022-11-29T14:16:21.019Z,17.73
2022-11-29T14:19:32.871Z,19.80
2022-11-29T14:22:21.877Z,19.77
2022-11-29T14:25:11.795Z,20.27
2022-11-29T14:28:00.384Z,23.65
2022-11-29T14:30:52.011Z,22.10
2022-11-29T14:33:51.599Z,26.30
2022-11-29T14:36:48.179Z,25.88
2022-11-29T14:39:42.949Z,26.17
2022-11-29T14:42:19.319Z,23.63
2022-11-29T14:44:55.570Z,25.25
2022-11-29T14:47:32.841Z,21.00
2022-11-29T14:50:10.569Z,22.35
2022-11-29T14:52:52.816Z,19.33
2022-11-29T14:55:37.553Z,21.98
2022-11-29T14:58:22.925Z,20.77
2022-11-29T15:01:10.084Z,20.45
2022-11-29T15:03:50.968Z,23.92
2022-11-29T15:06:27.833Z,21.73
2022-11-29T15:09:07.410Z,21.98
2022-11-29T15:11:54.885Z,22.35
2022-11-29T15:14:38.255Z,23.30
2022-11-29T15:17:31.680Z,23.23
2022-11-29T15:20:29.697Z,20.60
2022-11-29T15:23:07.457Z,21.48
2022-11-29T15:25:48.887Z,22.67
2022-11-29T15:28:27.044Z,23.17
2022-11-29T15:31:07.189Z,21.63
2022-11-29T15:33:42.821Z,22.60
2022-11-29T15:36:19.798Z,23.88
2022-11-29T15:38:55.531Z,25.48
2022-11-29T15:41:32.368Z,24.80
2022-11-29T15:44:07.575Z,24.92
2022-11-29T15:46:41.037Z,22.58
2022-11-29T15:49:19.360Z,24.77
2022-11-29T15:51:58.235Z,26.17
2022-11-29T15:54:35.675Z,20.67
2022-11-29T15:57:17.229Z,23.20
2022-11-29T15:59:55.456Z,20.83
2022-11-29T16:02:31.692Z,21.13
2022-11-29T16:05:18.078Z,22.23
2022-11-29T16:07:56.072Z,20.48
2022-11-29T16:10:36.177Z,19.75
2022-11-29T16:13:33.320Z,21.42
2022-11-29T16:16:12.058Z,19.65
2022-11-29T16:18:48.177Z,19.65
2022-11-29T16:21:27.457Z,21.55
2022-11-29T16:24:15.547Z,20.30
2022-11-29T16:26:51.437Z,18.70
2022-11-29T16:29:33.291Z,20.42
2022-11-29T16:32:21.902Z,20.20
2022-11-29T16:35:17.070Z,21.15
2022-11-29T16:37:50.706Z,21.48
2022-11-29T16:40:30.920Z,20.75
2022-11-29T16:43:29.182Z,20.55
2022-11-29T16:49:05.443Z,20.33
2022-11-29T16:51:48.450Z,19.88
2022-11-29T16:54:26.465Z,21.90
2022-11-29T16:57:03.066Z,23.67
2022-11-29T16:59:40.710Z,20.50
2022-11-29T17:02:20.717Z,20.35
2022-11-29T17:04:57.077Z,21.20
2022-11-29T17:07:36.455Z,21.33
2022-11-29T17:10:14.935Z,21.45
2022-11-29T17:12:48.634Z,23.33
2022-11-29T17:15:22.088Z,23.27
2022-11-29T17:17:55.544Z,19.13
2022-11-29T17:20:30.509Z,22.25
2022-11-29T17:23:05.073Z,21.02
2022-11-29T17:25:38.471Z,24.63
2022-11-29T17:28:11.933Z,23.88
2022-11-29T17:30:45.495Z,19.70
2022-11-29T17:33:21.798Z,21.40
2022-11-29T17:36:04.577Z,18.83
2022-11-29T17:38:43.041Z,19.35
2022-11-29T17:41:21.044Z,19.00
2022-11-29T17:43:56.030Z,17.70
2022-11-29T17:46:31.176Z,17.67
2022-11-29T17:49:07.272Z,18.60
2022-11-29T17:51:53.421Z,18.20
2022-11-29T17:54:33.161Z,20.92
2022-11-29T17:57:06.603Z,21.45
2022-11-29T18:02:33.213Z,20.00
2022-11-29T18:05:07.707Z,19.48
2022-11-29T18:07:58.199Z,18.80
2022-11-29T18:10:31.805Z,21.70
2022-11-29T18:13:11.960Z,20.88
2022-11-29T18:15:45.377Z,21.58
2022-11-29T18:18:18.991Z,23.23
2022-11-29T18:20:53.627Z,23.33
2022-11-29T18:23:31.419Z,22.02
2022-11-29T18:26:09.820Z,22.77
2022-11-29T18:28:45.010Z,24.88
2022-11-29T18:31:21.626Z,24.33
2022-11-29T18:33:56.841Z,24.90
2022-11-29T18:36:32.363Z,24.98
2022-11-29T18:39:09.290Z,24.45
2022-11-29T18:41:44.554Z,26.20
2022-11-29T18:44:35.581Z,24.17
2022-11-29T18:47:09.728Z,26.40
2022-11-29T18:49:43.199Z,24.17
2022-11-29T18:52:16.731Z,24.38
2022-11-29T18:54:51.592Z,23.25
2022-11-29T18:57:25.033Z,21.30
2022-11-29T18:59:58.430Z,22.45
2022-11-29T19:02:31.892Z,23.27
2022-11-29T19:05:05.570Z,22.38
2022-11-29T19:07:39.030Z,21.60
2022-11-29T19:10:14.083Z,22.98
2022-11-29T19:12:47.543Z,23.02
2022-11-29T19:15:20.946Z,22.65
2022-11-29T19:17:54.644Z,23.45
2022-11-29T19:20:28.025Z,24.25
2022-11-29T19:23:01.459Z,22.13
2022-11-29T19:25:37.187Z,20.77
2022-11-29T19:28:14.072Z,19.60
2022-11-29T19:30:55.480Z,19.73
2022-11-29T19:33:29.035Z,18.98
2022-11-29T19:36:06.259Z,22.33
2022-11-29T19:38:40.541Z,23.48
2022-11-29T19:41:18.090Z,22.95
2022-11-29T19:43:52.144Z,20.10
2022-11-29T19:49:02.859Z,19.48
2022-11-29T19:51:37.043Z,20.65
2022-11-29T19:54:13.529Z,20.10
2022-11-29T19:56:48.365Z,21.23
2022-11-29T19:59:21.780Z,22.77
2022-11-29T20:01:55.303Z,22.33
2022-11-29T20:04:28.789Z,22.05
2022-11-29T20:07:03.648Z,22.60
2022-11-29T20:09:37.113Z,22.95
2022-11-29T20:12:12.031Z,22.98
2022-11-29T20:14:45.466Z,22.02
2022-11-29T20:17:19.116Z,22.13
2022-11-29T20:19:52.600Z,22.52
2022-11-29T20:22:26.090Z,23.10
2022-11-29T20:24:59.621Z,23.58
2022-11-29T20:27:34.595Z,21.88
2022-11-29T20:30:10.520Z,24.00
2022-11-29T20:32:44.444Z,21.55
2022-11-29T20:38:13.262Z,20.85
2022-11-29T20:41:02.339Z,18.45
2022-11-29T20:43:48.359Z,21.58
2022-11-29T20:46:22.518Z,19.23
2022-11-29T20:49:01.705Z,19.02
2022-11-29T20:51:44.138Z,20.10
2022-11-29T20:54:21.518Z,19.80
2022-11-29T20:56:55.046Z,20.30
2022-11-29T20:59:32.285Z,30.67
2022-11-29T21:02:08.803Z,21.48
2022-11-29T21:04:42.256Z,19.38
2022-11-29T21:07:15.689Z,20.73
2022-11-29T21:09:49.140Z,20.50
2022-11-29T21:12:26.291Z,21.05
2022-11-29T21:15:02.454Z,18.95
2022-11-29T21:17:36.691Z,20.25
2022-11-29T21:20:19.108Z,18.90
2022-11-29T21:23:01.418Z,19.52
2022-11-29T21:25:57.628Z,20.02
2022-11-29T21:28:39.012Z,20.27
2022-11-29T21:31:19.112Z,19.67
2022-11-29T21:33:54.662Z,20.65
2022-11-29T21:36:29.107Z,19.98
2022-11-29T21:39:05.379Z,21.70
2022-11-29T21:41:39.338Z,17.92
2022-11-29T21:44:18.769Z,19.67
2022-11-29T21:46:53.706Z,22.58
2022-11-29T21:49:27.110Z,19.10
2022-11-29T21:52:01.271Z,21.55
2022-11-29T21:54:35.356Z,20.30
2022-11-29T21:59:44.853Z,20.75
2022-11-29T22:02:24.579Z,19.85
2022-11-29T22:05:02.582Z,20.65
2022-11-29T22:07:36.072Z,21.67
2022-11-29T22:10:13.510Z,22.35
2022-11-29T22:12:52.174Z,19.95
2022-11-29T22:15:25.928Z,19.98
2022-11-29T22:18:00.719Z,19.75
2022-11-29T22:20:34.162Z,20.73
2022-11-29T22:23:14.146Z,20.17
2022-11-29T22:25:48.047Z,21.63
2022-11-29T22:28:21.422Z,21.95
2022-11-29T22:31:02.204Z,22.23
2022-11-29T22:33:37.507Z,21.40
2022-11-29T22:36:13.263Z,20.20
2022-11-29T22:38:46.726Z,20.83
2022-11-29T22:41:20.237Z,19.88
2022-11-29T22:43:54.028Z,18.15
2022-11-29T22:46:36.105Z,20.95
2022-11-29T22:49:31.086Z,20.80
2022-11-29T22:52:11.431Z,20.08
2022-11-29T22:55:05.473Z,19.95
2022-11-29T22:57:46.394Z,19.25
2022-11-29T23:00:20.291Z,21.65
2022-11-29T23:02:58.213Z,19.70
2022-11-29T23:05:34.581Z,19.63
2022-11-29T23:08:16.141Z,20.60
2022-11-29T23:10:57.648Z,20.73
2022-11-29T23:13:35.328Z,19.05
2022-11-29T23:16:22.262Z,19.10
2022-11-29T23:19:00.114Z,19.25
2022-11-29T23:21:40.627Z,17.58
2022-11-29T23:24:18.873Z,18.75
2022-11-29T23:26:54.053Z,17.38
2022-11-29T23:29:31.815Z,18.38
2022-11-29T23:32:13.942Z,17.17
2022-11-29T23:34:51.018Z,18.67
2022-11-29T23:37:26.810Z,18.00
2022-11-29T23:40:02.135Z,17.90
2022-11-29T23:42:37.619Z,17.85
2022-11-29T23:45:17.338Z,17.27
2022-11-29T23:47:53.311Z,18.35
2022-11-29T23:50:34.102Z,17.92
2022-11-29T23:53:18.188Z,19.10
2022-11-29T23:55:59.088Z,17.13
2022-11-29T23:58:36.489Z,17.70
